CheckWX is a tool to help pilots better visualize weather data.  It is not intended as a substitute for an official pre-flight weather briefing.

07:11:26 UTC

KMCO TAF
Orlando International Airport
Orlando, Florida, USA
KMCO 200545Z 2006/2112 20008KT P6SM FEW025 SCT250 FM201400 24012G18KT P6SM SCT040 SCT250 FM210000 24008KT P6SM FEW040 SCT250

Jun-20@
06:00 UTC

Jun-20 @ 06:00 UTC

Jun-20@
14:00 UTC

Jun-20 @ 14:00 UTC

KMCO 200545Z 2006/2112 20008KT P6SM FEW025 SCT250
Wind
  • 200° at 8 KTS
Cloud Levels
  • Few at 2,500' AGL
  • Scattered at 25,000' AGL

Jun-20@
14:00 UTC

Jun-20 @ 14:00 UTC

Jun-21@
00:00 UTC

Jun-21 @ 00:00 UTC

FM201400 24012G18KT P6SM SCT040 SCT250

From

From Standard forecast or significant change

Wind
  • 240° at 12 KTS
  • {Gusting to 18 KTS
Cloud Levels
  • Scattered at 4,000' AGL
  • Scattered at 25,000' AGL

Jun-21@
00:00 UTC

Jun-21 @ 00:00 UTC

Jun-21@
12:00 UTC

Jun-21 @ 12:00 UTC

FM210000 24008KT P6SM FEW040 SCT250

From

From Standard forecast or significant change

Wind
  • 240° at 8 KTS
Cloud Levels
  • Few at 4,000' AGL
  • Scattered at 25,000' AGL